Погода Рабаулна неделю

Медина, Саудовская Аравия

26 мая-01 июня
  • 26мая
    Сегодня
    +26°
    +34°
    Ясно и безоблачно
    ВремяПогодаТемператураВлажностьДавлениеВетер, м/сВероятность осадков
    00:00Ясно и безоблачно+30°C62 %755 мм2.5 м/с1 %
    03:00Ясно и безоблачно+29°C83 %755 мм3.3 м/с1 %
    06:00Ясно и безоблачно+28°C84 %756 мм3.2 м/с1 %
    09:00Ясно и безоблачно+32°C57 %756 мм4.0 м/с1 %
    12:00Ясно и безоблачно+33°C52 %756 мм6.3 м/с1 %
    15:00Ясно и безоблачно+33°C54 %755 мм8.1 м/с1 %
    18:00Ясно и безоблачно+32°C62 %754 мм6.2 м/с1 %
    21:00Ясно и безоблачно+30°C81 %755 мм2.8 м/с1 %
  • 27мая
    Понедельник
    +25°
    +35°
    Ясно и безоблачно
    ВремяПогодаТемператураВлажностьДавлениеВетер, м/сВероятность осадков
    00:00Ясно и безоблачно+29°C92 %756 мм1.2 м/с1 %
    03:00Небольшая облачность+27°C99 %755 мм1.3 м/с1 %
    06:00Пасмурно, сплошная облачность+27°C98 %755 мм1.5 м/с1 %
    09:00Практически безоблачно+29°C82 %756 мм0.6 м/с1 %
    12:00Ясно и безоблачно+33°C55 %756 мм5.2 м/с1 %
    15:00Ясно и безоблачно+34°C52 %754 мм6.7 м/с1 %
    18:00Ясно и безоблачно+32°C68 %754 мм4.7 м/с1 %
    21:00Ясно и безоблачно+31°C79 %755 мм2.2 м/с1 %
  • 28мая
    Вторник
    +27°
    +36°
    Ясно и безоблачно
    ВремяПогодаТемператураВлажностьДавлениеВетер, м/сВероятность осадков
    00:00Ясно и безоблачно+30°C86 %755 мм0.7 м/с1 %
    03:00Ясно и безоблачно+28°C96 %754 мм1.5 м/с1 %
    06:00Облачно с прояснениями+26°C98 %754 мм1.0 м/с1 %
    09:00Ясно и безоблачно+31°C72 %755 мм2.8 м/с1 %
    12:00Ясно и безоблачно+35°C47 %754 мм5.4 м/с1 %
    15:00Ясно и безоблачно+35°C54 %753 мм7.0 м/с1 %
    18:00Ясно и безоблачно+35°C50 %753 мм5.2 м/с1 %
    21:00Ясно и безоблачно+32°C63 %754 мм2.9 м/с1 %
  • 29мая
    Среда
    +30°
    +38°
    Ясно и безоблачно
    ВремяПогодаТемператураВлажностьДавлениеВетер, м/сВероятность осадков
    00:00Ясно и безоблачно+31°C77 %754 мм0.8 м/с1 %
    03:00Ясно и безоблачно+29°C84 %753 мм0.8 м/с1 %
    06:00Ясно и безоблачно+28°C76 %753 мм0.9 м/с1 %
    09:00Практически безоблачно+33°C48 %754 мм0.4 м/с1 %
    12:00Ясно и безоблачно+38°C39 %753 мм6.4 м/с1 %
    15:00Ясно и безоблачно+38°C41 %752 мм9.2 м/с1 %
    18:00Ясно и безоблачно+36°C49 %752 мм8.6 м/с1 %
    21:00Ясно и безоблачно+35°C44 %752 мм7.4 м/с1 %
  • 30мая
    Четверг
    +31°
    +41°
    Ясно и безоблачно
    ВремяПогодаТемператураВлажностьДавлениеВетер, м/сВероятность осадков
    00:00Ясно и безоблачно+35°C40 %752 мм5.5 м/с1 %
    03:00Ясно и безоблачно+34°C31 %752 мм4.4 м/с1 %
    06:00Ясно и безоблачно+30°C39 %753 мм2.4 м/с1 %
    09:00Ясно и безоблачно+36°C25 %754 мм2.2 м/с1 %
    12:00Ясно и безоблачно+40°C26 %753 мм6.8 м/с1 %
    15:00Ясно и безоблачно+39°C26 %752 мм11.7 м/с1 %
    18:00Ясно и безоблачно+37°C30 %752 мм11.5 м/с1 %
    21:00Ясно и безоблачно+35°C34 %753 мм10.0 м/с1 %
Мы используем cookies
Соглашаюсь